Time,TemperatureF,DewpointF,PressureIn,WindDirection,WindDirectionDegrees,WindSpeedMPH,WindSpeedGustMPH,Humidity,HourlyPrecipIn,Conditions,Clouds,dailyrainin,SoftwareType,DateUTC
2013-01-03 00:03:00,67.0,-99.9,30.06,NNE,21,1.0,2.0,-999,-99.99,,,-99.99,,2013-01-03 05:03:00,
2013-01-03 00:12:00,67.0,-99.9,30.06,NNE,30,1.0,2.0,-999,-99.99,,,-99.99,,2013-01-03 05:12:00,
2013-01-03 00:23:00,67.0,-99.9,30.06,North,10,2.0,3.0,-999,-99.99,,,-99.99,,2013-01-03 05:23:00,
2013-01-03 00:33:00,66.0,-99.9,30.06,NNE,15,2.0,3.0,-999,-99.99,,,-99.99,,2013-01-03 05:33:00,
2013-01-03 00:42:00,66.0,-99.9,30.06,NE,38,2.0,3.0,-999,-99.99,,,-99.99,,2013-01-03 05:42:00,
2013-01-03 00:53:00,66.0,-99.9,30.06,NNE,33,2.0,3.0,-999,-99.99,,,-99.99,,2013-01-03 05:53:00,
2013-01-03 01:03:00,65.0,-99.9,30.06,NE,40,1.0,2.0,-999,-99.99,,,-99.99,,2013-01-03 06:03:00,
2013-01-03 01:12:00,65.0,-99.9,30.06,NNE,12,1.0,2.0,-999,-99.99,,,-99.99,,2013-01-03 06:12:00,
2013-01-03 01:22:00,65.0,-99.9,30.06,NW,326,2.0,3.0,-999,-99.99,,,-99.99,,2013-01-03 06:22:00,
2013-01-03 01:33:00,65.0,-99.9,30.06,NW,326,4.0,5.0,-999,-99.99,,,-99.99,,2013-01-03 06:33:00,
2013-01-03 01:43:00,64.0,-99.9,30.06,NNW,327,2.0,4.0,-999,-99.99,,,-99.99,,2013-01-03 06:43:00,
2013-01-03 01:53:00,64.0,-99.9,30.06,NNW,348,2.0,3.0,-999,-99.99,,,-99.99,,2013-01-03 06:53:00,
2013-01-03 02:02:00,64.0,-99.9,30.06,NNW,332,4.0,4.0,-999,-99.99,,,-99.99,,2013-01-03 07:02:00,
2013-01-03 02:12:00,63.0,-99.9,30.06,NNW,335,2.0,4.0,-999,-99.99,,,-99.99,,2013-01-03 07:12:00,
2013-01-03 02:22:00,63.0,-99.9,30.06,NW,325,3.0,4.0,-999,-99.99,,,-99.99,,2013-01-03 07:22:00,
2013-01-03 02:33:00,63.0,-99.9,30.06,North,351,2.0,4.0,-999,-99.99,,,-99.99,,2013-01-03 07:33:00,
2013-01-03 02:43:00,63.0,-99.9,30.05,NNE,19,1.0,2.0,-999,-99.99,,,-99.99,,2013-01-03 07:43:00,
2013-01-03 02:53:00,63.0,-99.9,30.05,NE,53,2.0,3.0,-999,-99.99,,,-99.99,,2013-01-03 07:53:00,
2013-01-03 03:02:00,63.0,-99.9,30.05,ENE,57,2.0,3.0,-999,-99.99,,,-99.99,,2013-01-03 08:02:00,
2013-01-03 03:12:00,64.0,-99.9,30.05,NE,56,2.0,3.0,-999,-99.99,,,-99.99,,2013-01-03 08:12:00,
2013-01-03 03:23:00,64.0,-99.9,30.05,NE,50,2.0,3.0,-999,-99.99,,,-99.99,,2013-01-03 08:23:00,
2013-01-03 03:33:00,64.0,-99.9,30.04,ENE,62,1.0,2.0,-999,-99.99,,,-99.99,,2013-01-03 08:33:00,
2013-01-03 03:43:00,64.0,-99.9,30.05,ENE,61,2.0,3.0,-999,-99.99,,,-99.99,,2013-01-03 08:43:00,
2013-01-03 03:53:00,64.0,-99.9,30.05,East,79,1.0,3.0,-999,-99.99,,,-99.99,,2013-01-03 08:53:00,
2013-01-03 04:03:00,63.0,-99.9,30.05,ESE,113,2.0,3.0,-999,-99.99,,,-99.99,,2013-01-03 09:03:00,
2013-01-03 04:12:00,62.0,-99.9,30.05,SE,128,4.0,5.0,-999,-99.99,,,-99.99,,2013-01-03 09:12:00,
2013-01-03 04:23:00,62.0,-99.9,30.05,SE,125,4.0,5.0,-999,-99.99,,,-99.99,,2013-01-03 09:23:00,
2013-01-03 04:34:00,62.0,-99.9,30.05,SE,126,3.0,4.0,-999,-99.99,,,-99.99,,2013-01-03 09:34:00,
2013-01-03 04:43:00,62.0,-99.9,30.05,ESE,110,3.0,4.0,-999,-99.99,,,-99.99,,2013-01-03 09:43:00,
2013-01-03 04:53:00,62.0,-99.9,30.05,SE,132,4.0,5.0,-999,-99.99,,,-99.99,,2013-01-03 09:53:00,
2013-01-03 05:02:00,62.0,-99.9,30.05,ESE,115,3.0,4.0,-999,-99.99,,,-99.99,,2013-01-03 10:02:00,
2013-01-03 05:12:00,61.0,-99.9,30.05,SE,131,3.0,5.0,-999,-99.99,,,-99.99,,2013-01-03 10:12:00,
2013-01-03 05:23:00,61.0,-99.9,30.05,ESE,119,4.0,5.0,-999,-99.99,,,-99.99,,2013-01-03 10:23:00,
2013-01-03 05:33:00,61.0,-99.9,30.05,ESE,116,4.0,5.0,-999,-99.99,,,-99.99,,2013-01-03 10:33:00,
2013-01-03 05:43:00,60.0,-99.9,30.04,ESE,120,5.0,6.0,-999,-99.99,,,-99.99,,2013-01-03 10:43:00,
2013-01-03 05:53:00,61.0,-99.9,30.04,ESE,108,3.0,6.0,-999,-99.99,,,-99.99,,2013-01-03 10:53:00,
2013-01-03 06:03:00,60.0,-99.9,30.05,ESE,106,3.0,4.0,-999,-99.99,,,-99.99,,2013-01-03 11:03:00,
2013-01-03 06:12:00,60.0,-99.9,30.05,East,88,2.0,3.0,-999,-99.99,,,-99.99,,2013-01-03 11:12:00,
2013-01-03 06:23:00,60.0,-99.9,30.05,ESE,107,2.0,3.0,-999,-99.99,,,-99.99,,2013-01-03 11:23:00,
2013-01-03 06:34:00,60.0,-99.9,30.05,ESE,123,4.0,5.0,-999,-99.99,,,-99.99,,2013-01-03 11:34:00,
2013-01-03 06:43:00,60.0,-99.9,30.05,SE,128,6.0,7.0,-999,-99.99,,,-99.99,,2013-01-03 11:43:00,
2013-01-03 06:53:00,60.0,-99.9,30.06,SE,126,6.0,8.0,-999,-99.99,,,-99.99,,2013-01-03 11:53:00,
2013-01-03 07:03:00,60.0,-99.9,30.06,SE,127,6.0,7.0,-999,-99.99,,,-99.99,,2013-01-03 12:03:00,
2013-01-03 07:12:00,60.0,-99.9,30.06,SE,126,4.0,5.0,-999,-99.99,,,-99.99,,2013-01-03 12:12:00,
2013-01-03 07:22:00,60.0,-99.9,30.06,SE,125,3.0,4.0,-999,-99.99,,,-99.99,,2013-01-03 12:22:00,
2013-01-03 07:33:00,60.0,-99.9,30.07,SE,130,2.0,3.0,-999,-99.99,,,-99.99,,2013-01-03 12:33:00,
2013-01-03 07:43:00,60.0,-99.9,30.07,SE,132,3.0,4.0,-999,-99.99,,,-99.99,,2013-01-03 12:43:00,
2013-01-03 07:53:00,60.0,-99.9,30.08,SE,138,2.0,3.0,-999,-99.99,,,-99.99,,2013-01-03 12:53:00,
2013-01-03 08:03:00,60.0,-99.9,30.08,SSE,149,3.0,3.0,-999,-99.99,,,-99.99,,2013-01-03 13:03:00,
2013-01-03 08:13:00,60.0,-99.9,30.08,SE,137,2.0,4.0,-999,-99.99,,,-99.99,,2013-01-03 13:13:00,
2013-01-03 08:22:00,61.0,-99.9,30.09,SE,126,2.0,4.0,-999,-99.99,,,-99.99,,2013-01-03 13:22:00,
2013-01-03 08:33:00,61.0,-99.9,30.09,SSE,147,2.0,3.0,-999,-99.99,,,-99.99,,2013-01-03 13:33:00,
2013-01-03 08:43:00,62.0,-99.9,30.09,SSE,157,0.0,1.0,-999,-99.99,,,-99.99,,2013-01-03 13:43:00,
2013-01-03 08:53:00,63.0,-99.9,30.09,SE,139,0.0,1.0,-999,-99.99,,,-99.99,,2013-01-03 13:53:00,
2013-01-03 09:03:00,65.0,-99.9,30.10,SE,140,0.0,2.0,-999,-99.99,,,-99.99,,2013-01-03 14:03:00,
2013-01-03 09:12:00,65.0,-99.9,30.10,SE,129,1.0,1.0,-999,-99.99,,,-99.99,,2013-01-03 14:12:00,
2013-01-03 09:23:00,64.0,-99.9,30.10,SE,127,3.0,4.0,-999,-99.99,,,-99.99,,2013-01-03 14:23:00,
2013-01-03 09:33:00,65.0,-99.9,30.10,East,87,1.0,4.0,-999,-99.99,,,-99.99,,2013-01-03 14:33:00,
2013-01-03 09:43:00,64.0,-99.9,30.11,NNE,31,2.0,3.0,-999,-99.99,,,-99.99,,2013-01-03 14:43:00,
2013-01-03 09:53:00,65.0,-99.9,30.11,NE,54,3.0,3.0,-999,-99.99,,,-99.99,,2013-01-03 14:53:00,
2013-01-03 10:03:00,65.0,-99.9,30.11,NE,39,3.0,4.0,-999,-99.99,,,-99.99,,2013-01-03 15:03:00,
2013-01-03 10:13:00,65.0,-99.9,30.11,NNE,30,4.0,5.0,-999,-99.99,,,-99.99,,2013-01-03 15:13:00,
2013-01-03 10:23:00,66.0,-99.9,30.10,NE,37,3.0,4.0,-999,-99.99,,,-99.99,,2013-01-03 15:23:00,
2013-01-03 10:34:00,67.0,-99.9,30.10,NE,52,2.0,5.0,-999,-99.99,,,-99.99,,2013-01-03 15:34:00,
2013-01-03 10:43:00,69.0,-99.9,30.11,East,98,2.0,4.0,-999,-99.99,,,-99.99,,2013-01-03 15:43:00,
2013-01-03 10:53:00,70.0,-99.9,30.11,ESE,116,5.0,7.0,-999,-99.99,,,-99.99,,2013-01-03 15:53:00,
2013-01-03 11:03:00,73.0,-99.9,30.10,SE,125,5.0,8.0,-999,-99.99,,,-99.99,,2013-01-03 16:03:00,
2013-01-03 11:12:00,74.0,-99.9,30.10,SSE,149,6.0,9.0,-999,-99.99,,,-99.99,,2013-01-03 16:12:00,
2013-01-03 11:23:00,74.0,-99.9,30.10,ESE,122,6.0,9.0,-999,-99.99,,,-99.99,,2013-01-03 16:23:00,
2013-01-03 11:34:00,74.0,-99.9,30.09,SSE,163,6.0,9.0,-999,-99.99,,,-99.99,,2013-01-03 16:34:00,
2013-01-03 11:43:00,76.0,-99.9,30.09,SSE,161,3.0,10.0,-999,-99.99,,,-99.99,,2013-01-03 16:43:00,
2013-01-03 11:53:00,76.0,-99.9,30.09,SE,144,4.0,10.0,-999,-99.99,,,-99.99,,2013-01-03 16:53:00,
2013-01-03 12:03:00,77.0,-99.9,30.08,SSE,163,7.0,12.0,-999,-99.99,,,-99.99,,2013-01-03 17:03:00,
2013-01-03 12:13:00,77.0,-99.9,30.08,SSW,209,4.0,10.0,-999,-99.99,,,-99.99,,2013-01-03 17:13:00,
2013-01-03 12:23:00,78.0,-99.9,30.07,South,184,4.0,9.0,-999,-99.99,,,-99.99,,2013-01-03 17:23:00,
2013-01-03 12:33:00,77.0,-99.9,30.07,South,178,8.0,13.0,-999,-99.99,,,-99.99,,2013-01-03 17:33:00,
2013-01-03 12:43:00,77.0,-99.9,30.06,SSE,164,6.0,11.0,-999,-99.99,,,-99.99,,2013-01-03 17:43:00,
2013-01-03 12:53:00,79.0,-99.9,30.05,WSW,244,3.0,8.0,-999,-99.99,,,-99.99,,2013-01-03 17:53:00,
2013-01-03 13:03:00,79.0,-99.9,30.04,SSE,167,6.0,11.0,-999,-99.99,,,-99.99,,2013-01-03 18:03:00,
2013-01-03 13:13:00,80.0,-99.9,30.04,South,190,8.0,13.0,-999,-99.99,,,-99.99,,2013-01-03 18:13:00,
2013-01-03 13:23:00,80.0,-99.9,30.04,South,191,7.0,13.0,-999,-99.99,,,-99.99,,2013-01-03 18:23:00,
2013-01-03 13:33:00,80.0,-99.9,30.03,SSW,204,7.0,13.0,-999,-99.99,,,-99.99,,2013-01-03 18:33:00,
2013-01-03 13:43:00,80.0,-99.9,30.03,South,183,7.0,14.0,-999,-99.99,,,-99.99,,2013-01-03 18:43:00,
2013-01-03 13:53:00,80.0,-99.9,30.03,SSW,207,7.0,15.0,-999,-99.99,,,-99.99,,2013-01-03 18:53:00,
2013-01-03 14:03:00,81.0,-99.9,30.03,South,184,4.0,14.0,-999,-99.99,,,-99.99,,2013-01-03 19:03:00,
2013-01-03 14:13:00,79.0,-99.9,30.03,SW,226,6.0,12.0,-999,-99.99,,,-99.99,,2013-01-03 19:13:00,
2013-01-03 14:57:00,78.0,-99.9,30.03,WSW,239,9.0,15.0,-999,-99.99,,,-99.99,,2013-01-03 19:57:00,
2013-01-03 15:03:00,78.0,-99.9,30.03,SW,229,4.0,11.0,-999,-99.99,,,-99.99,,2013-01-03 20:03:00,
2013-01-03 15:13:00,79.0,-99.9,30.03,SW,227,4.0,9.0,-999,-99.99,,,-99.99,,2013-01-03 20:13:00,
2013-01-03 15:23:00,80.0,-99.9,30.03,SSW,201,6.0,11.0,-999,-99.99,,,-99.99,,2013-01-03 20:23:00,
2013-01-03 15:33:00,80.0,-99.9,30.03,South,191,9.0,13.0,-999,-99.99,,,-99.99,,2013-01-03 20:33:00,
2013-01-03 15:43:00,79.0,-99.9,30.03,SSW,207,7.0,12.0,-999,-99.99,,,-99.99,,2013-01-03 20:43:00,
2013-01-03 15:53:00,80.0,-99.9,30.03,SSW,208,5.0,11.0,-999,-99.99,,,-99.99,,2013-01-03 20:53:00,
2013-01-03 16:03:00,79.0,-99.9,30.03,SW,222,4.0,13.0,-999,-99.99,,,-99.99,,2013-01-03 21:03:00,
2013-01-03 16:13:00,79.0,-99.9,30.03,SW,220,6.0,11.0,-999,-99.99,,,-99.99,,2013-01-03 21:13:00,
2013-01-03 16:23:00,79.0,-99.9,30.04,SW,223,4.0,10.0,-999,-99.99,,,-99.99,,2013-01-03 21:23:00,
2013-01-03 16:38:00,80.0,-99.9,30.04,SSW,206,3.0,10.0,-999,-99.99,,,-99.99,,2013-01-03 21:38:00,
2013-01-03 16:51:00,79.0,-99.9,30.04,SSW,202,6.0,11.0,-999,-99.99,,,-99.99,,2013-01-03 21:51:00,
2013-01-03 17:03:00,78.0,-99.9,30.05,WSW,244,5.0,7.0,-999,-99.99,,,-99.99,,2013-01-03 22:03:00,
2013-01-03 17:12:00,78.0,-99.9,30.05,SW,217,4.0,10.0,-999,-99.99,,,-99.99,,2013-01-03 22:12:00,
2013-01-03 17:23:00,78.0,-99.9,30.05,SW,230,2.0,8.0,-999,-99.99,,,-99.99,,2013-01-03 22:23:00,
2013-01-03 17:33:00,78.0,-99.9,30.05,South,172,3.0,6.0,-999,-99.99,,,-99.99,,2013-01-03 22:33:00,
2013-01-03 17:43:00,77.0,-99.9,30.05,SSW,209,5.0,10.0,-999,-99.99,,,-99.99,,2013-01-03 22:43:00,
2013-01-03 17:53:00,77.0,-99.9,30.06,SSW,203,4.0,9.0,-999,-99.99,,,-99.99,,2013-01-03 22:53:00,
2013-01-03 18:03:00,76.0,-99.9,30.05,South,174,5.0,6.0,-999,-99.99,,,-99.99,,2013-01-03 23:03:00,
2013-01-03 18:13:00,76.0,-99.9,30.06,South,175,4.0,9.0,-999,-99.99,,,-99.99,,2013-01-03 23:13:00,
2013-01-03 18:23:00,75.0,-99.9,30.06,South,173,5.0,9.0,-999,-99.99,,,-99.99,,2013-01-03 23:23:00,
2013-01-03 18:33:00,75.0,-99.9,30.07,SSW,211,0.0,2.0,-999,-99.99,,,-99.99,,2013-01-03 23:33:00,
2013-01-03 18:43:00,75.0,-99.9,30.07,SSW,194,5.0,8.0,-999,-99.99,,,-99.99,,2013-01-03 23:43:00,
2013-01-03 18:53:00,75.0,-99.9,30.08,SSW,195,2.0,7.0,-999,-99.99,,,-99.99,,2013-01-03 23:53:00,
2013-01-03 19:03:00,74.0,-99.9,30.09,SW,225,1.0,3.0,-999,-99.99,,,-99.99,,2013-01-04 00:03:00,
2013-01-03 19:13:00,74.0,-99.9,30.09,SW,215,2.0,4.0,-999,-99.99,,,-99.99,,2013-01-04 00:13:00,
2013-01-03 19:23:00,74.0,-99.9,30.09,SSE,164,3.0,5.0,-999,-99.99,,,-99.99,,2013-01-04 00:23:00,
2013-01-03 19:33:00,74.0,-99.9,30.09,South,171,4.0,5.0,-999,-99.99,,,-99.99,,2013-01-04 00:33:00,
2013-01-03 19:43:00,74.0,-99.9,30.09,South,191,3.0,6.0,-999,-99.99,,,-99.99,,2013-01-04 00:43:00,
2013-01-03 19:53:00,74.0,-99.9,30.09,South,187,3.0,5.0,-999,-99.99,,,-99.99,,2013-01-04 00:53:00,
2013-01-03 20:02:00,74.0,-99.9,30.09,South,170,4.0,6.0,-999,-99.99,,,-99.99,,2013-01-04 01:02:00,
2013-01-03 20:13:00,74.0,-99.9,30.09,South,185,2.0,6.0,-999,-99.99,,,-99.99,,2013-01-04 01:13:00,
2013-01-03 20:22:00,74.0,-99.9,30.10,South,183,2.0,5.0,-999,-99.99,,,-99.99,,2013-01-04 01:22:00,
2013-01-03 20:33:00,74.0,-99.9,30.10,SSE,164,3.0,6.0,-999,-99.99,,,-99.99,,2013-01-04 01:33:00,
2013-01-03 20:43:00,74.0,-99.9,30.10,SSE,166,5.0,6.0,-999,-99.99,,,-99.99,,2013-01-04 01:43:00,
2013-01-03 20:53:00,74.0,-99.9,30.10,SSE,167,4.0,7.0,-999,-99.99,,,-99.99,,2013-01-04 01:53:00,
2013-01-03 21:02:00,74.0,-99.9,30.10,SSE,157,4.0,5.0,-999,-99.99,,,-99.99,,2013-01-04 02:02:00,
2013-01-03 21:12:00,73.0,-99.9,30.10,SSE,157,6.0,8.0,-999,-99.99,,,-99.99,,2013-01-04 02:12:00,
2013-01-03 21:23:00,73.0,-99.9,30.10,SSE,160,5.0,8.0,-999,-99.99,,,-99.99,,2013-01-04 02:23:00,
2013-01-03 21:33:00,73.0,-99.9,30.10,SSE,155,3.0,6.0,-999,-99.99,,,-99.99,,2013-01-04 02:33:00,
2013-01-03 21:43:00,73.0,-99.9,30.11,SSE,148,4.0,7.0,-999,-99.99,,,-99.99,,2013-01-04 02:43:00,
2013-01-03 21:53:00,73.0,-99.9,30.11,SSE,154,4.0,7.0,-999,-99.99,,,-99.99,,2013-01-04 02:53:00,
2013-01-03 22:03:00,73.0,-99.9,30.11,SSE,153,5.0,7.0,-999,-99.99,,,-99.99,,2013-01-04 03:03:00,
2013-01-03 22:12:00,72.0,-99.9,30.11,SSE,158,3.0,6.0,-999,-99.99,,,-99.99,,2013-01-04 03:12:00,
2013-01-03 22:23:00,72.0,-99.9,30.11,SSE,155,3.0,4.0,-999,-99.99,,,-99.99,,2013-01-04 03:23:00,
2013-01-03 22:33:00,72.0,-99.9,30.12,SSE,164,3.0,4.0,-999,-99.99,,,-99.99,,2013-01-04 03:33:00,
2013-01-03 22:43:00,72.0,-99.9,30.12,SSE,163,5.0,7.0,-999,-99.99,,,-99.99,,2013-01-04 03:43:00,
2013-01-03 22:53:00,72.0,-99.9,30.12,SSE,167,3.0,7.0,-999,-99.99,,,-99.99,,2013-01-04 03:53:00,
2013-01-03 23:02:00,72.0,-99.9,30.12,SSE,150,3.0,5.0,-999,-99.99,,,-99.99,,2013-01-04 04:02:00,
2013-01-03 23:12:00,72.0,-99.9,30.12,South,178,2.0,3.0,-999,-99.99,,,-99.99,,2013-01-04 04:12:00,
2013-01-03 23:22:00,72.0,-99.9,30.13,ESE,107,-999.0,2.0,-999,-99.99,,,-99.99,,2013-01-04 04:22:00,
2013-01-03 23:33:00,72.0,-99.9,30.13,South,179,0.0,2.0,-999,-99.99,,,-99.99,,2013-01-04 04:33:00,
2013-01-03 23:42:00,71.0,-99.9,30.13,East,93,-999.0,2.0,-999,-99.99,,,-99.99,,2013-01-04 04:42:00,
2013-01-03 23:53:00,71.0,-99.9,30.12,ESE,113,1.0,2.0,-999,-99.99,,,-99.99,,2013-01-04 04:53:00,